sensor_id;sensor_type;location;lat;lon;timestamp;temperature;humidity
13115;DHT22;6623;52.120;8.660;2024-01-15T00:02:07;19.10;41.70
13115;DHT22;6623;52.120;8.660;2024-01-15T00:04:38;19.10;41.70
13115;DHT22;6623;52.120;8.660;2024-01-15T00:07:04;19.10;41.70
13115;DHT22;6623;52.120;8.660;2024-01-15T00:09:29;19.10;41.60
13115;DHT22;6623;52.120;8.660;2024-01-15T00:11:55;19.10;41.70
13115;DHT22;6623;52.120;8.660;2024-01-15T00:14:20;19.10;41.70
13115;DHT22;6623;52.120;8.660;2024-01-15T00:16:46;19.10;41.70
13115;DHT22;6623;52.120;8.660;2024-01-15T00:19:14;19.10;41.60
13115;DHT22;6623;52.120;8.660;2024-01-15T00:21:39;19.10;41.70
13115;DHT22;6623;52.120;8.660;2024-01-15T00:24:05;19.10;41.60
13115;DHT22;6623;52.120;8.660;2024-01-15T00:26:30;19.10;41.70
13115;DHT22;6623;52.120;8.660;2024-01-15T00:28:56;19.10;41.60
13115;DHT22;6623;52.120;8.660;2024-01-15T00:31:21;19.10;41.70
13115;DHT22;6623;52.120;8.660;2024-01-15T00:33:47;19.10;41.60
13115;DHT22;6623;52.120;8.660;2024-01-15T00:36:12;19.10;41.60
13115;DHT22;6623;52.120;8.660;2024-01-15T00:38:39;19.10;41.60
13115;DHT22;6623;52.120;8.660;2024-01-15T00:41:05;19.10;41.60
13115;DHT22;6623;52.120;8.660;2024-01-15T00:43:30;19.10;41.60
13115;DHT22;6623;52.120;8.660;2024-01-15T00:45:56;19.10;41.60
13115;DHT22;6623;52.120;8.660;2024-01-15T00:48:21;19.10;41.60
13115;DHT22;6623;52.120;8.660;2024-01-15T00:50:47;19.10;41.60
13115;DHT22;6623;52.120;8.660;2024-01-15T00:53:12;19.10;41.60
13115;DHT22;6623;52.120;8.660;2024-01-15T00:55:38;19.10;41.60
13115;DHT22;6623;52.120;8.660;2024-01-15T00:58:04;19.10;41.50
13115;DHT22;6623;52.120;8.660;2024-01-15T01:00:29;19.10;41.60
13115;DHT22;6623;52.120;8.660;2024-01-15T01:02:54;19.10;41.50
13115;DHT22;6623;52.120;8.660;2024-01-15T01:05:20;19.10;41.50
13115;DHT22;6623;52.120;8.660;2024-01-15T01:07:46;19.10;41.50
13115;DHT22;6623;52.120;8.660;2024-01-15T01:10:11;19.10;41.50
13115;DHT22;6623;52.120;8.660;2024-01-15T01:12:37;19.10;41.50
13115;DHT22;6623;52.120;8.660;2024-01-15T01:15:03;19.10;41.50
13115;DHT22;6623;52.120;8.660;2024-01-15T01:17:29;19.10;41.50
13115;DHT22;6623;52.120;8.660;2024-01-15T01:19:56;19.10;41.50
13115;DHT22;6623;52.120;8.660;2024-01-15T01:22:21;19.10;41.50
13115;DHT22;6623;52.120;8.660;2024-01-15T01:24:47;19.10;41.50
13115;DHT22;6623;52.120;8.660;2024-01-15T01:27:12;19.10;41.50
13115;DHT22;6623;52.120;8.660;2024-01-15T01:29:37;19.10;41.50
13115;DHT22;6623;52.120;8.660;2024-01-15T01:32:03;19.10;41.50
13115;DHT22;6623;52.120;8.660;2024-01-15T01:34:29;19.10;41.50
13115;DHT22;6623;52.120;8.660;2024-01-15T01:36:55;19.10;41.50
13115;DHT22;6623;52.120;8.660;2024-01-15T01:39:20;19.10;41.50
13115;DHT22;6623;52.120;8.660;2024-01-15T01:41:46;19.10;41.50
13115;DHT22;6623;52.120;8.660;2024-01-15T01:44:12;19.10;41.50
13115;DHT22;6623;52.120;8.660;2024-01-15T01:46:38;19.00;41.40
13115;DHT22;6623;52.120;8.660;2024-01-15T01:49:07;19.10;41.50
13115;DHT22;6623;52.120;8.660;2024-01-15T01:51:35;19.10;41.50
13115;DHT22;6623;52.120;8.660;2024-01-15T01:54:01;19.00;41.40
13115;DHT22;6623;52.120;8.660;2024-01-15T01:56:27;19.00;41.40
13115;DHT22;6623;52.120;8.660;2024-01-15T01:58:53;19.00;41.40
13115;DHT22;6623;52.120;8.660;2024-01-15T02:01:19;19.00;41.40
13115;DHT22;6623;52.120;8.660;2024-01-15T02:03:45;19.00;41.40
13115;DHT22;6623;52.120;8.660;2024-01-15T02:06:11;19.00;41.40
13115;DHT22;6623;52.120;8.660;2024-01-15T02:08:36;19.00;41.40
13115;DHT22;6623;52.120;8.660;2024-01-15T02:11:02;19.00;41.40
13115;DHT22;6623;52.120;8.660;2024-01-15T02:13:28;19.00;41.40
13115;DHT22;6623;52.120;8.660;2024-01-15T02:15:54;19.00;41.40
13115;DHT22;6623;52.120;8.660;2024-01-15T02:18:19;19.00;41.40
13115;DHT22;6623;52.120;8.660;2024-01-15T02:20:45;19.00;41.40
13115;DHT22;6623;52.120;8.660;2024-01-15T02:23:11;19.00;41.40
13115;DHT22;6623;52.120;8.660;2024-01-15T02:25:38;19.00;41.40
13115;DHT22;6623;52.120;8.660;2024-01-15T02:28:05;19.00;41.40
13115;DHT22;6623;52.120;8.660;2024-01-15T02:30:31;19.00;41.40
13115;DHT22;6623;52.120;8.660;2024-01-15T02:32:57;19.00;41.40
13115;DHT22;6623;52.120;8.660;2024-01-15T02:35:22;19.00;42.00
13115;DHT22;6623;52.120;8.660;2024-01-15T02:37:48;19.00;41.40
13115;DHT22;6623;52.120;8.660;2024-01-15T02:40:13;19.00;41.40
13115;DHT22;6623;52.120;8.660;2024-01-15T02:42:39;19.00;41.40
13115;DHT22;6623;52.120;8.660;2024-01-15T02:45:04;19.00;41.40
13115;DHT22;6623;52.120;8.660;2024-01-15T02:47:30;19.00;41.40
13115;DHT22;6623;52.120;8.660;2024-01-15T02:49:55;19.00;41.40
13115;DHT22;6623;52.120;8.660;2024-01-15T02:52:21;19.00;41.40
13115;DHT22;6623;52.120;8.660;2024-01-15T02:54:46;19.00;41.40
13115;DHT22;6623;52.120;8.660;2024-01-15T02:57:12;19.00;41.40
13115;DHT22;6623;52.120;8.660;2024-01-15T02:59:37;19.00;41.40
13115;DHT22;6623;52.120;8.660;2024-01-15T03:02:03;19.00;41.40
13115;DHT22;6623;52.120;8.660;2024-01-15T03:04:29;19.00;41.40
13115;DHT22;6623;52.120;8.660;2024-01-15T03:06:54;19.00;41.40
13115;DHT22;6623;52.120;8.660;2024-01-15T03:09:19;19.00;41.40
13115;DHT22;6623;52.120;8.660;2024-01-15T03:11:45;19.00;41.40
13115;DHT22;6623;52.120;8.660;2024-01-15T03:14:10;19.00;41.30
13115;DHT22;6623;52.120;8.660;2024-01-15T03:16:36;19.00;41.30
13115;DHT22;6623;52.120;8.660;2024-01-15T03:19:01;19.00;41.30
13115;DHT22;6623;52.120;8.660;2024-01-15T03:21:27;19.00;41.30
13115;DHT22;6623;52.120;8.660;2024-01-15T03:23:52;19.00;41.30
13115;DHT22;6623;52.120;8.660;2024-01-15T03:26:18;19.00;41.40
13115;DHT22;6623;52.120;8.660;2024-01-15T03:28:46;19.00;41.30
13115;DHT22;6623;52.120;8.660;2024-01-15T03:31:12;19.00;41.30
13115;DHT22;6623;52.120;8.660;2024-01-15T03:33:37;19.00;41.30
13115;DHT22;6623;52.120;8.660;2024-01-15T03:36:03;19.00;41.30
13115;DHT22;6623;52.120;8.660;2024-01-15T03:38:28;19.00;41.30
13115;DHT22;6623;52.120;8.660;2024-01-15T03:40:54;19.00;41.30
13115;DHT22;6623;52.120;8.660;2024-01-15T03:43:20;19.00;41.30
13115;DHT22;6623;52.120;8.660;2024-01-15T03:45:45;19.00;41.30
13115;DHT22;6623;52.120;8.660;2024-01-15T03:48:11;19.00;41.30
13115;DHT22;6623;52.120;8.660;2024-01-15T03:50:36;19.00;41.20
13115;DHT22;6623;52.120;8.660;2024-01-15T03:53:02;19.00;41.20
13115;DHT22;6623;52.120;8.660;2024-01-15T03:55:27;19.00;41.20
13115;DHT22;6623;52.120;8.660;2024-01-15T03:57:53;19.00;41.20
13115;DHT22;6623;52.120;8.660;2024-01-15T04:00:19;19.00;41.20
13115;DHT22;6623;52.120;8.660;2024-01-15T04:02:44;19.00;41.20
13115;DHT22;6623;52.120;8.660;2024-01-15T04:05:10;19.00;41.20
13115;DHT22;6623;52.120;8.660;2024-01-15T04:07:36;19.00;41.20
13115;DHT22;6623;52.120;8.660;2024-01-15T04:10:01;19.00;41.20
13115;DHT22;6623;52.120;8.660;2024-01-15T04:12:27;19.00;41.20
13115;DHT22;6623;52.120;8.660;2024-01-15T04:14:52;19.00;41.20
13115;DHT22;6623;52.120;8.660;2024-01-15T04:17:18;19.00;41.20
13115;DHT22;6623;52.120;8.660;2024-01-15T04:19:44;19.00;41.20
13115;DHT22;6623;52.120;8.660;2024-01-15T04:22:09;19.00;41.20
13115;DHT22;6623;52.120;8.660;2024-01-15T04:24:35;19.00;41.20
13115;DHT22;6623;52.120;8.660;2024-01-15T04:27:00;19.00;41.20
13115;DHT22;6623;52.120;8.660;2024-01-15T04:29:26;19.00;41.20
13115;DHT22;6623;52.120;8.660;2024-01-15T04:31:52;19.00;41.10
13115;DHT22;6623;52.120;8.660;2024-01-15T04:34:18;19.00;41.20
13115;DHT22;6623;52.120;8.660;2024-01-15T04:36:43;19.00;41.20
13115;DHT22;6623;52.120;8.660;2024-01-15T04:39:09;19.00;41.20
13115;DHT22;6623;52.120;8.660;2024-01-15T04:41:35;19.00;41.20
13115;DHT22;6623;52.120;8.660;2024-01-15T04:44:01;19.00;41.20
13115;DHT22;6623;52.120;8.660;2024-01-15T04:46:26;19.00;41.10
13115;DHT22;6623;52.120;8.660;2024-01-15T04:48:52;19.00;41.20
13115;DHT22;6623;52.120;8.660;2024-01-15T04:51:17;19.00;41.20
13115;DHT22;6623;52.120;8.660;2024-01-15T04:53:43;19.00;41.10
13115;DHT22;6623;52.120;8.660;2024-01-15T04:56:09;19.00;41.10
13115;DHT22;6623;52.120;8.660;2024-01-15T04:58:34;19.00;41.20
13115;DHT22;6623;52.120;8.660;2024-01-15T05:01:00;19.00;41.20
13115;DHT22;6623;52.120;8.660;2024-01-15T05:03:25;19.00;41.10
13115;DHT22;6623;52.120;8.660;2024-01-15T05:05:51;19.00;41.10
13115;DHT22;6623;52.120;8.660;2024-01-15T05:08:19;19.00;41.10
13115;DHT22;6623;52.120;8.660;2024-01-15T05:10:45;19.00;41.10
13115;DHT22;6623;52.120;8.660;2024-01-15T05:13:11;19.00;41.10
13115;DHT22;6623;52.120;8.660;2024-01-15T05:15:36;19.00;41.10
13115;DHT22;6623;52.120;8.660;2024-01-15T05:18:02;19.00;41.10
13115;DHT22;6623;52.120;8.660;2024-01-15T05:20:27;19.00;41.10
13115;DHT22;6623;52.120;8.660;2024-01-15T05:22:53;19.00;41.10
13115;DHT22;6623;52.120;8.660;2024-01-15T05:25:18;18.90;41.00
13115;DHT22;6623;52.120;8.660;2024-01-15T05:27:44;19.00;41.10
13115;DHT22;6623;52.120;8.660;2024-01-15T05:30:10;19.00;41.10
13115;DHT22;6623;52.120;8.660;2024-01-15T05:32:36;19.00;41.10
13115;DHT22;6623;52.120;8.660;2024-01-15T05:35:01;19.00;41.00
13115;DHT22;6623;52.120;8.660;2024-01-15T05:37:27;19.00;41.10
13115;DHT22;6623;52.120;8.660;2024-01-15T05:39:52;19.00;41.00
13115;DHT22;6623;52.120;8.660;2024-01-15T05:42:18;19.00;41.10
13115;DHT22;6623;52.120;8.660;2024-01-15T05:44:43;18.90;41.00
13115;DHT22;6623;52.120;8.660;2024-01-15T05:47:08;19.00;41.10
13115;DHT22;6623;52.120;8.660;2024-01-15T05:49:34;19.00;41.00
13115;DHT22;6623;52.120;8.660;2024-01-15T05:51:59;18.90;41.00
13115;DHT22;6623;52.120;8.660;2024-01-15T05:54:25;18.90;41.00
13115;DHT22;6623;52.120;8.660;2024-01-15T05:56:50;18.90;41.00
13115;DHT22;6623;52.120;8.660;2024-01-15T05:59:16;18.90;41.00
13115;DHT22;6623;52.120;8.660;2024-01-15T06:01:42;18.90;41.00
13115;DHT22;6623;52.120;8.660;2024-01-15T06:04:07;18.90;41.00
13115;DHT22;6623;52.120;8.660;2024-01-15T06:06:33;18.90;41.00
13115;DHT22;6623;52.120;8.660;2024-01-15T06:08:58;18.90;41.00
13115;DHT22;6623;52.120;8.660;2024-01-15T06:11:33;18.90;41.00
13115;DHT22;6623;52.120;8.660;2024-01-15T06:13:58;18.90;41.00
13115;DHT22;6623;52.120;8.660;2024-01-15T06:16:26;18.90;41.00
13115;DHT22;6623;52.120;8.660;2024-01-15T06:18:51;18.90;41.00
13115;DHT22;6623;52.120;8.660;2024-01-15T06:21:17;18.90;41.00
13115;DHT22;6623;52.120;8.660;2024-01-15T06:23:42;18.90;41.00
13115;DHT22;6623;52.120;8.660;2024-01-15T06:26:08;18.90;41.00
13115;DHT22;6623;52.120;8.660;2024-01-15T06:28:33;18.90;41.00
13115;DHT22;6623;52.120;8.660;2024-01-15T06:30:59;18.90;41.00
13115;DHT22;6623;52.120;8.660;2024-01-15T06:33:24;18.90;41.00
13115;DHT22;6623;52.120;8.660;2024-01-15T06:35:50;18.90;41.00
13115;DHT22;6623;52.120;8.660;2024-01-15T06:38:16;18.90;41.00
13115;DHT22;6623;52.120;8.660;2024-01-15T06:40:42;18.90;41.00
13115;DHT22;6623;52.120;8.660;2024-01-15T06:43:14;18.90;41.00
13115;DHT22;6623;52.120;8.660;2024-01-15T06:45:40;18.90;41.00
13115;DHT22;6623;52.120;8.660;2024-01-15T06:48:06;18.90;40.90
13115;DHT22;6623;52.120;8.660;2024-01-15T06:50:33;18.90;41.00
13115;DHT22;6623;52.120;8.660;2024-01-15T06:52:58;18.90;41.00
13115;DHT22;6623;52.120;8.660;2024-01-15T06:55:23;18.90;41.00
13115;DHT22;6623;52.120;8.660;2024-01-15T06:57:49;18.90;41.00
13115;DHT22;6623;52.120;8.660;2024-01-15T07:00:15;18.90;40.90
13115;DHT22;6623;52.120;8.660;2024-01-15T07:02:41;18.90;40.90
13115;DHT22;6623;52.120;8.660;2024-01-15T07:05:07;18.90;41.00
13115;DHT22;6623;52.120;8.660;2024-01-15T07:07:32;18.90;41.00
13115;DHT22;6623;52.120;8.660;2024-01-15T07:09:58;18.90;41.00
13115;DHT22;6623;52.120;8.660;2024-01-15T07:12:23;18.90;40.90
13115;DHT22;6623;52.120;8.660;2024-01-15T07:14:49;18.90;41.00
13115;DHT22;6623;52.120;8.660;2024-01-15T07:17:15;18.90;41.00
13115;DHT22;6623;52.120;8.660;2024-01-15T07:19:41;18.90;41.00
13115;DHT22;6623;52.120;8.660;2024-01-15T07:22:06;18.90;40.90
13115;DHT22;6623;52.120;8.660;2024-01-15T07:24:32;18.90;40.90
13115;DHT22;6623;52.120;8.660;2024-01-15T07:26:59;18.90;40.90
13115;DHT22;6623;52.120;8.660;2024-01-15T07:29:25;18.90;40.90
13115;DHT22;6623;52.120;8.660;2024-01-15T07:31:51;18.90;40.90
13115;DHT22;6623;52.120;8.660;2024-01-15T07:34:17;18.90;40.90
13115;DHT22;6623;52.120;8.660;2024-01-15T07:36:46;18.90;40.90
13115;DHT22;6623;52.120;8.660;2024-01-15T07:39:12;18.90;40.90
13115;DHT22;6623;52.120;8.660;2024-01-15T07:41:37;18.90;40.90
13115;DHT22;6623;52.120;8.660;2024-01-15T07:44:03;18.90;40.90
13115;DHT22;6623;52.120;8.660;2024-01-15T07:46:28;18.90;40.90
13115;DHT22;6623;52.120;8.660;2024-01-15T07:48:54;18.90;40.90
13115;DHT22;6623;52.120;8.660;2024-01-15T07:51:23;18.90;40.90
13115;DHT22;6623;52.120;8.660;2024-01-15T07:53:49;18.90;40.90
13115;DHT22;6623;52.120;8.660;2024-01-15T07:56:14;18.90;40.90
13115;DHT22;6623;52.120;8.660;2024-01-15T07:58:40;18.90;40.90
13115;DHT22;6623;52.120;8.660;2024-01-15T08:01:05;18.90;40.90
13115;DHT22;6623;52.120;8.660;2024-01-15T08:03:31;18.90;40.90
13115;DHT22;6623;52.120;8.660;2024-01-15T08:05:58;18.90;40.90
13115;DHT22;6623;52.120;8.660;2024-01-15T08:08:25;18.90;40.90
13115;DHT22;6623;52.120;8.660;2024-01-15T08:10:52;18.90;40.90
13115;DHT22;6623;52.120;8.660;2024-01-15T08:13:18;18.90;40.90
13115;DHT22;6623;52.120;8.660;2024-01-15T08:15:44;18.90;40.90
13115;DHT22;6623;52.120;8.660;2024-01-15T08:18:09;18.90;40.90
13115;DHT22;6623;52.120;8.660;2024-01-15T08:20:35;18.90;40.90
13115;DHT22;6623;52.120;8.660;2024-01-15T08:23:00;18.90;40.90
13115;DHT22;6623;52.120;8.660;2024-01-15T08:25:26;18.90;40.90
13115;DHT22;6623;52.120;8.660;2024-01-15T08:27:52;18.90;40.90
13115;DHT22;6623;52.120;8.660;2024-01-15T08:30:17;18.90;40.90
13115;DHT22;6623;52.120;8.660;2024-01-15T08:32:44;18.90;40.90
13115;DHT22;6623;52.120;8.660;2024-01-15T08:35:10;18.90;40.90
13115;DHT22;6623;52.120;8.660;2024-01-15T08:37:36;18.90;40.90
13115;DHT22;6623;52.120;8.660;2024-01-15T08:40:02;18.90;40.90
13115;DHT22;6623;52.120;8.660;2024-01-15T08:42:28;18.90;40.90
13115;DHT22;6623;52.120;8.660;2024-01-15T08:44:54;18.90;40.90
13115;DHT22;6623;52.120;8.660;2024-01-15T08:47:19;18.90;40.80
13115;DHT22;6623;52.120;8.660;2024-01-15T08:49:45;18.90;40.90
13115;DHT22;6623;52.120;8.660;2024-01-15T08:52:11;18.90;40.80
13115;DHT22;6623;52.120;8.660;2024-01-15T08:54:37;18.90;40.80
13115;DHT22;6623;52.120;8.660;2024-01-15T08:57:02;18.90;40.80
13115;DHT22;6623;52.120;8.660;2024-01-15T08:59:28;19.00;40.90
13115;DHT22;6623;52.120;8.660;2024-01-15T09:01:53;18.90;40.80
13115;DHT22;6623;52.120;8.660;2024-01-15T09:04:19;18.90;40.80
13115;DHT22;6623;52.120;8.660;2024-01-15T09:06:47;18.90;40.80
13115;DHT22;6623;52.120;8.660;2024-01-15T09:09:13;18.90;40.80
13115;DHT22;6623;52.120;8.660;2024-01-15T09:11:41;18.90;40.80
13115;DHT22;6623;52.120;8.660;2024-01-15T09:14:07;18.90;40.80
13115;DHT22;6623;52.120;8.660;2024-01-15T09:16:33;18.90;40.80
13115;DHT22;6623;52.120;8.660;2024-01-15T09:18:59;18.90;40.80
13115;DHT22;6623;52.120;8.660;2024-01-15T09:21:25;18.90;40.80
13115;DHT22;6623;52.120;8.660;2024-01-15T09:23:50;18.90;40.80
13115;DHT22;6623;52.120;8.660;2024-01-15T09:26:16;18.90;40.70
13115;DHT22;6623;52.120;8.660;2024-01-15T09:28:42;18.90;40.70
13115;DHT22;6623;52.120;8.660;2024-01-15T09:31:08;18.90;40.80
13115;DHT22;6623;52.120;8.660;2024-01-15T09:33:33;18.90;40.70
13115;DHT22;6623;52.120;8.660;2024-01-15T09:36:03;18.90;40.80
13115;DHT22;6623;52.120;8.660;2024-01-15T09:38:31;18.90;40.70
13115;DHT22;6623;52.120;8.660;2024-01-15T09:40:57;18.90;40.70
13115;DHT22;6623;52.120;8.660;2024-01-15T09:43:23;18.90;40.70
13115;DHT22;6623;52.120;8.660;2024-01-15T09:45:50;18.90;40.70
13115;DHT22;6623;52.120;8.660;2024-01-15T09:48:16;18.90;40.70
13115;DHT22;6623;52.120;8.660;2024-01-15T09:50:45;18.90;40.70
13115;DHT22;6623;52.120;8.660;2024-01-15T09:53:11;18.90;40.70
13115;DHT22;6623;52.120;8.660;2024-01-15T09:55:39;18.90;40.70
13115;DHT22;6623;52.120;8.660;2024-01-15T09:58:05;18.90;40.70
13115;DHT22;6623;52.120;8.660;2024-01-15T10:00:31;18.90;40.70
13115;DHT22;6623;52.120;8.660;2024-01-15T10:02:58;18.90;40.70
13115;DHT22;6623;52.120;8.660;2024-01-15T10:05:26;18.90;40.70
13115;DHT22;6623;52.120;8.660;2024-01-15T10:07:53;18.90;40.70
13115;DHT22;6623;52.120;8.660;2024-01-15T10:10:20;18.90;40.70
13115;DHT22;6623;52.120;8.660;2024-01-15T10:12:47;18.90;40.70
13115;DHT22;6623;52.120;8.660;2024-01-15T10:15:12;18.90;40.70
13115;DHT22;6623;52.120;8.660;2024-01-15T10:17:39;18.90;40.70
13115;DHT22;6623;52.120;8.660;2024-01-15T10:20:11;18.90;40.70
13115;DHT22;6623;52.120;8.660;2024-01-15T10:22:43;18.90;40.70
13115;DHT22;6623;52.120;8.660;2024-01-15T10:25:15;18.90;40.70
13115;DHT22;6623;52.120;8.660;2024-01-15T10:27:41;18.90;40.70
13115;DHT22;6623;52.120;8.660;2024-01-15T10:30:08;18.90;40.70
13115;DHT22;6623;52.120;8.660;2024-01-15T10:32:33;18.90;40.70
13115;DHT22;6623;52.120;8.660;2024-01-15T10:34:59;18.90;40.70
13115;DHT22;6623;52.120;8.660;2024-01-15T10:37:25;18.90;40.70
13115;DHT22;6623;52.120;8.660;2024-01-15T10:39:51;18.90;40.70
13115;DHT22;6623;52.120;8.660;2024-01-15T10:42:17;18.90;40.70
13115;DHT22;6623;52.120;8.660;2024-01-15T10:44:44;18.90;40.70
13115;DHT22;6623;52.120;8.660;2024-01-15T10:47:10;18.90;41.40
13115;DHT22;6623;52.120;8.660;2024-01-15T10:49:36;18.90;40.70
13115;DHT22;6623;52.120;8.660;2024-01-15T10:52:03;18.90;40.70
13115;DHT22;6623;52.120;8.660;2024-01-15T10:54:29;18.90;40.70
13115;DHT22;6623;52.120;8.660;2024-01-15T10:56:56;18.90;40.70
13115;DHT22;6623;52.120;8.660;2024-01-15T10:59:22;18.90;40.70
13115;DHT22;6623;52.120;8.660;2024-01-15T11:01:51;18.90;40.70
13115;DHT22;6623;52.120;8.660;2024-01-15T11:04:23;18.90;40.70
13115;DHT22;6623;52.120;8.660;2024-01-15T11:06:53;18.90;40.80
13115;DHT22;6623;52.120;8.660;2024-01-15T11:09:19;18.90;40.80
13115;DHT22;6623;52.120;8.660;2024-01-15T11:11:46;18.90;40.70
13115;DHT22;6623;52.120;8.660;2024-01-15T11:14:38;18.90;40.70
13115;DHT22;6623;52.120;8.660;2024-01-15T11:17:04;18.90;40.70
13115;DHT22;6623;52.120;8.660;2024-01-15T11:19:44;19.00;40.80
13115;DHT22;6623;52.120;8.660;2024-01-15T11:24:54;19.00;40.80
13115;DHT22;6623;52.120;8.660;2024-01-15T11:30:08;19.00;40.80
13115;DHT22;6623;52.120;8.660;2024-01-15T11:32:37;19.00;40.70
13115;DHT22;6623;52.120;8.660;2024-01-15T11:35:03;19.00;40.80
13115;DHT22;6623;52.120;8.660;2024-01-15T11:40:37;19.00;40.80
13115;DHT22;6623;52.120;8.660;2024-01-15T11:43:04;19.00;40.80
13115;DHT22;6623;52.120;8.660;2024-01-15T11:45:30;19.00;40.80
13115;DHT22;6623;52.120;8.660;2024-01-15T11:48:16;19.00;40.80
13115;DHT22;6623;52.120;8.660;2024-01-15T11:50:49;19.00;40.80
13115;DHT22;6623;52.120;8.660;2024-01-15T11:53:33;19.00;40.80
13115;DHT22;6623;52.120;8.660;2024-01-15T11:56:02;19.00;40.80
13115;DHT22;6623;52.120;8.660;2024-01-15T11:58:29;19.00;40.80
13115;DHT22;6623;52.120;8.660;2024-01-15T12:00:54;19.00;40.80
13115;DHT22;6623;52.120;8.660;2024-01-15T12:03:21;19.00;40.90
13115;DHT22;6623;52.120;8.660;2024-01-15T12:05:47;19.00;40.90
13115;DHT22;6623;52.120;8.660;2024-01-15T12:08:13;19.10;40.90
13115;DHT22;6623;52.120;8.660;2024-01-15T12:10:40;19.00;40.90
13115;DHT22;6623;52.120;8.660;2024-01-15T12:13:13;19.00;40.80
13115;DHT22;6623;52.120;8.660;2024-01-15T12:15:39;19.00;40.90
13115;DHT22;6623;52.120;8.660;2024-01-15T12:18:07;19.00;40.80
13115;DHT22;6623;52.120;8.660;2024-01-15T12:20:33;19.10;40.90
13115;DHT22;6623;52.120;8.660;2024-01-15T12:23:00;19.00;40.80
13115;DHT22;6623;52.120;8.660;2024-01-15T12:25:26;19.10;40.90
13115;DHT22;6623;52.120;8.660;2024-01-15T12:27:53;19.00;40.80
13115;DHT22;6623;52.120;8.660;2024-01-15T12:30:19;19.10;40.90
13115;DHT22;6623;52.120;8.660;2024-01-15T12:32:45;19.00;40.80
13115;DHT22;6623;52.120;8.660;2024-01-15T12:35:12;19.00;40.80
13115;DHT22;6623;52.120;8.660;2024-01-15T12:37:42;19.10;40.90
13115;DHT22;6623;52.120;8.660;2024-01-15T12:40:09;19.10;40.80
13115;DHT22;6623;52.120;8.660;2024-01-15T12:42:44;19.00;40.80
13115;DHT22;6623;52.120;8.660;2024-01-15T12:45:11;19.00;40.70
13115;DHT22;6623;52.120;8.660;2024-01-15T12:47:37;19.00;40.70
13115;DHT22;6623;52.120;8.660;2024-01-15T12:50:09;19.00;40.70
13115;DHT22;6623;52.120;8.660;2024-01-15T12:52:35;19.00;40.70
13115;DHT22;6623;52.120;8.660;2024-01-15T12:55:06;19.00;40.70
13115;DHT22;6623;52.120;8.660;2024-01-15T12:57:33;19.00;40.70
13115;DHT22;6623;52.120;8.660;2024-01-15T12:59:59;19.00;40.70
13115;DHT22;6623;52.120;8.660;2024-01-15T13:02:24;19.00;40.70
13115;DHT22;6623;52.120;8.660;2024-01-15T13:04:50;19.00;40.70
13115;DHT22;6623;52.120;8.660;2024-01-15T13:07:16;19.00;40.70
13115;DHT22;6623;52.120;8.660;2024-01-15T13:09:42;19.00;40.70
13115;DHT22;6623;52.120;8.660;2024-01-15T13:12:08;19.00;40.70
13115;DHT22;6623;52.120;8.660;2024-01-15T13:14:34;19.00;40.70
13115;DHT22;6623;52.120;8.660;2024-01-15T13:16:59;19.00;40.70
13115;DHT22;6623;52.120;8.660;2024-01-15T13:19:25;19.00;40.70
13115;DHT22;6623;52.120;8.660;2024-01-15T13:21:51;19.00;40.70
13115;DHT22;6623;52.120;8.660;2024-01-15T13:24:17;19.00;40.70
13115;DHT22;6623;52.120;8.660;2024-01-15T13:26:42;19.00;40.60
13115;DHT22;6623;52.120;8.660;2024-01-15T13:29:08;19.00;40.70
13115;DHT22;6623;52.120;8.660;2024-01-15T13:31:33;19.00;40.60
13115;DHT22;6623;52.120;8.660;2024-01-15T13:33:59;19.00;41.20
13115;DHT22;6623;52.120;8.660;2024-01-15T13:36:26;19.00;40.60
13115;DHT22;6623;52.120;8.660;2024-01-15T13:38:52;19.00;40.60
13115;DHT22;6623;52.120;8.660;2024-01-15T13:41:19;19.00;40.60
13115;DHT22;6623;52.120;8.660;2024-01-15T13:43:49;19.00;40.60
13115;DHT22;6623;52.120;8.660;2024-01-15T13:46:16;19.00;40.60
13115;DHT22;6623;52.120;8.660;2024-01-15T13:48:42;19.00;40.60
13115;DHT22;6623;52.120;8.660;2024-01-15T13:51:08;19.00;40.60
13115;DHT22;6623;52.120;8.660;2024-01-15T13:53:33;19.00;40.60
13115;DHT22;6623;52.120;8.660;2024-01-15T13:55:59;19.00;40.60
13115;DHT22;6623;52.120;8.660;2024-01-15T13:58:24;19.00;40.60
13115;DHT22;6623;52.120;8.660;2024-01-15T14:00:51;19.00;40.60
13115;DHT22;6623;52.120;8.660;2024-01-15T14:03:17;19.00;40.60
13115;DHT22;6623;52.120;8.660;2024-01-15T14:05:43;19.00;40.60
13115;DHT22;6623;52.120;8.660;2024-01-15T14:08:08;19.00;40.50
13115;DHT22;6623;52.120;8.660;2024-01-15T14:10:34;19.00;40.50
13115;DHT22;6623;52.120;8.660;2024-01-15T14:12:59;19.00;40.60
13115;DHT22;6623;52.120;8.660;2024-01-15T14:15:24;19.00;40.50
13115;DHT22;6623;52.120;8.660;2024-01-15T14:17:50;18.90;40.50
13115;DHT22;6623;52.120;8.660;2024-01-15T14:20:16;18.90;40.50
13115;DHT22;6623;52.120;8.660;2024-01-15T14:22:42;19.00;40.60
13115;DHT22;6623;52.120;8.660;2024-01-15T14:25:08;18.90;40.50
13115;DHT22;6623;52.120;8.660;2024-01-15T14:27:33;18.90;40.50
13115;DHT22;6623;52.120;8.660;2024-01-15T14:29:59;19.00;40.50
13115;DHT22;6623;52.120;8.660;2024-01-15T14:32:24;18.90;40.50
13115;DHT22;6623;52.120;8.660;2024-01-15T14:34:50;18.90;40.80
13115;DHT22;6623;52.120;8.660;2024-01-15T14:37:15;18.90;40.50
13115;DHT22;6623;52.120;8.660;2024-01-15T14:39:41;18.90;40.50
13115;DHT22;6623;52.120;8.660;2024-01-15T14:42:06;18.90;40.40
13115;DHT22;6623;52.120;8.660;2024-01-15T14:44:32;18.90;40.40
13115;DHT22;6623;52.120;8.660;2024-01-15T14:47:00;18.90;40.40
13115;DHT22;6623;52.120;8.660;2024-01-15T14:49:25;18.90;40.50
13115;DHT22;6623;52.120;8.660;2024-01-15T14:51:51;18.90;40.40
13115;DHT22;6623;52.120;8.660;2024-01-15T14:54:17;18.90;40.40
13115;DHT22;6623;52.120;8.660;2024-01-15T14:56:42;18.90;40.40
13115;DHT22;6623;52.120;8.660;2024-01-15T14:59:11;19.00;40.50
13115;DHT22;6623;52.120;8.660;2024-01-15T15:01:36;18.90;40.40
13115;DHT22;6623;52.120;8.660;2024-01-15T15:04:02;18.90;40.40
13115;DHT22;6623;52.120;8.660;2024-01-15T15:06:27;18.90;40.40
13115;DHT22;6623;52.120;8.660;2024-01-15T15:08:56;18.90;40.40
13115;DHT22;6623;52.120;8.660;2024-01-15T15:11:25;18.90;40.40
13115;DHT22;6623;52.120;8.660;2024-01-15T15:13:51;18.90;40.40
13115;DHT22;6623;52.120;8.660;2024-01-15T15:16:17;18.90;40.40
13115;DHT22;6623;52.120;8.660;2024-01-15T15:18:42;18.90;40.40
13115;DHT22;6623;52.120;8.660;2024-01-15T15:21:11;18.90;40.40
13115;DHT22;6623;52.120;8.660;2024-01-15T15:23:37;18.90;40.40
13115;DHT22;6623;52.120;8.660;2024-01-15T15:26:04;18.90;40.40
13115;DHT22;6623;52.120;8.660;2024-01-15T15:28:30;18.90;40.40
13115;DHT22;6623;52.120;8.660;2024-01-15T15:30:55;18.90;40.40
13115;DHT22;6623;52.120;8.660;2024-01-15T15:33:22;18.90;40.40
13115;DHT22;6623;52.120;8.660;2024-01-15T15:35:48;18.90;40.40
13115;DHT22;6623;52.120;8.660;2024-01-15T15:38:16;18.90;40.40
13115;DHT22;6623;52.120;8.660;2024-01-15T15:40:42;18.90;40.40
13115;DHT22;6623;52.120;8.660;2024-01-15T15:43:07;18.90;40.40
13115;DHT22;6623;52.120;8.660;2024-01-15T15:45:33;18.90;40.40
13115;DHT22;6623;52.120;8.660;2024-01-15T15:47:58;18.90;40.40